Time,TemperatureF,DewpointF,PressureIn,WindDirection,WindDirectionDegrees,WindSpeedMPH,WindSpeedGustMPH,Humidity,HourlyPrecipIn,Conditions,Clouds,dailyrainin,SoftwareType,DateUTC
2013-02-26 00:00:00,23.9,20.6,30.19,SW,229,0.0,0.0,87,0.00,,,0.00,Wunderground v.1.15,2013-02-26 05:00:00,
2013-02-26 00:02:00,23.8,20.5,30.18,SW,229,0.0,0.0,87,0.00,,,0.00,Wunderground v.1.15,2013-02-26 05:02:00,
2013-02-26 00:06:00,23.9,20.6,30.19,SW,229,0.0,3.0,87,0.00,,,0.00,Wunderground v.1.15,2013-02-26 05:06:00,
2013-02-26 00:10:00,24.0,20.7,30.18,SW,229,1.0,1.0,87,0.00,,,0.00,Wunderground v.1.15,2013-02-26 05:10:00,
2013-02-26 00:16:00,24.1,20.8,30.18,SW,229,1.0,1.0,87,0.00,,,0.00,Wunderground v.1.15,2013-02-26 05:16:00,
2013-02-26 00:22:00,24.1,20.8,30.18,SW,229,0.0,0.0,87,0.00,,,0.00,Wunderground v.1.15,2013-02-26 05:22:00,
2013-02-26 00:28:00,23.8,20.5,30.18,SW,229,1.0,3.0,87,0.00,,,0.00,Wunderground v.1.15,2013-02-26 05:28:00,
2013-02-26 00:34:00,23.8,20.5,30.18,SW,236,2.0,3.0,87,0.00,,,0.00,Wunderground v.1.15,2013-02-26 05:34:00,
2013-02-26 00:40:00,23.9,20.6,30.18,SW,236,1.0,1.0,87,0.00,,,0.00,Wunderground v.1.15,2013-02-26 05:40:00,
2013-02-26 00:46:00,23.8,20.5,30.17,SW,236,1.0,1.0,87,0.00,,,0.00,Wunderground v.1.15,2013-02-26 05:46:00,
2013-02-26 00:52:00,23.7,20.4,30.18,WSW,237,1.0,2.0,87,0.00,,,0.00,Wunderground v.1.15,2013-02-26 05:52:00,
2013-02-26 00:58:00,23.6,20.3,30.18,WSW,237,1.0,2.0,87,0.00,,,0.00,Wunderground v.1.15,2013-02-26 05:58:00,
2013-02-26 01:04:00,23.3,20.0,30.19,WSW,237,1.0,4.0,87,0.00,,,0.00,Wunderground v.1.15,2013-02-26 06:04:00,
2013-02-26 01:10:00,23.6,20.3,30.19,WSW,238,2.0,2.0,87,0.00,,,0.00,Wunderground v.1.15,2013-02-26 06:10:00,
2013-02-26 01:16:00,23.8,20.5,30.18,WSW,238,1.0,2.0,87,0.00,,,0.00,Wunderground v.1.15,2013-02-26 06:16:00,
2013-02-26 01:22:00,23.9,20.6,30.17,WSW,238,0.0,0.0,87,0.00,,,0.00,Wunderground v.1.15,2013-02-26 06:22:00,
2013-02-26 01:28:00,23.9,20.6,30.17,WSW,238,0.0,1.0,87,0.00,,,0.00,Wunderground v.1.15,2013-02-26 06:28:00,
2013-02-26 01:34:00,24.0,20.7,30.18,SW,229,0.0,4.0,87,0.00,,,0.00,Wunderground v.1.15,2013-02-26 06:34:00,
2013-02-26 01:40:00,24.3,21.0,30.19,SW,227,2.0,4.0,87,0.00,,,0.00,Wunderground v.1.15,2013-02-26 06:40:00,
2013-02-26 01:46:00,24.3,20.7,30.19,SW,225,3.0,4.0,86,0.00,,,0.00,Wunderground v.1.15,2013-02-26 06:46:00,
2013-02-26 01:52:00,24.3,21.0,30.19,SW,225,2.0,2.0,87,0.00,,,0.00,Wunderground v.1.15,2013-02-26 06:52:00,
2013-02-26 01:58:00,24.3,20.7,30.19,SW,225,0.0,2.0,86,0.00,,,0.00,Wunderground v.1.15,2013-02-26 06:58:00,
2013-02-26 02:04:00,24.2,20.6,30.18,SW,225,0.0,3.0,86,0.00,,,0.00,Wunderground v.1.15,2013-02-26 07:04:00,
2013-02-26 02:10:00,24.0,20.7,30.19,SW,225,1.0,1.0,87,0.00,,,0.00,Wunderground v.1.15,2013-02-26 07:10:00,
2013-02-26 02:16:00,23.8,20.5,30.19,SW,229,1.0,2.0,87,0.00,,,0.00,Wunderground v.1.15,2013-02-26 07:16:00,
2013-02-26 02:22:00,23.7,20.4,30.19,SW,227,2.0,2.0,87,0.00,,,0.00,Wunderground v.1.15,2013-02-26 07:22:00,
2013-02-26 02:28:00,23.8,20.5,30.19,SW,227,1.0,2.0,87,0.00,,,0.00,Wunderground v.1.15,2013-02-26 07:28:00,
2013-02-26 02:34:00,23.8,20.5,30.18,SW,225,0.0,1.0,87,0.00,,,0.00,Wunderground v.1.15,2013-02-26 07:34:00,
2013-02-26 02:40:00,23.8,20.2,30.18,SW,223,1.0,3.0,86,0.00,,,0.00,Wunderground v.1.15,2013-02-26 07:40:00,
2013-02-26 02:46:00,23.6,20.3,30.18,SW,223,1.0,3.0,87,0.00,,,0.00,Wunderground v.1.15,2013-02-26 07:46:00,
2013-02-26 02:52:00,23.9,20.6,30.17,SE,142,2.0,3.0,87,0.00,,,0.00,Wunderground v.1.15,2013-02-26 07:52:00,
2013-02-26 02:58:00,24.8,21.5,30.17,SSE,168,3.0,4.0,87,0.00,,,0.00,Wunderground v.1.15,2013-02-26 07:58:00,
2013-02-26 03:04:00,26.9,23.0,30.17,SSW,204,3.0,3.0,85,0.00,,,0.00,Wunderground v.1.15,2013-02-26 08:04:00,
2013-02-26 03:10:00,27.8,23.3,30.17,South,189,2.0,4.0,83,0.00,,,0.00,Wunderground v.1.15,2013-02-26 08:10:00,
2013-02-26 03:16:00,28.8,23.7,30.16,SSW,209,2.0,4.0,81,0.00,,,0.00,Wunderground v.1.15,2013-02-26 08:16:00,
2013-02-26 03:22:00,28.7,23.3,30.16,South,181,2.0,2.0,80,0.00,,,0.00,Wunderground v.1.15,2013-02-26 08:22:00,
2013-02-26 03:28:00,28.0,22.9,30.16,South,181,1.0,2.0,81,0.00,,,0.00,Wunderground v.1.15,2013-02-26 08:28:00,
2013-02-26 03:34:00,27.9,22.8,30.15,South,184,1.0,1.0,81,0.00,,,0.00,Wunderground v.1.15,2013-02-26 08:34:00,
2013-02-26 03:40:00,27.6,22.5,30.16,South,184,1.0,1.0,81,0.00,,,0.00,Wunderground v.1.15,2013-02-26 08:40:00,
2013-02-26 03:46:00,27.1,22.3,30.16,South,184,0.0,1.0,82,0.00,,,0.00,Wunderground v.1.15,2013-02-26 08:46:00,
2013-02-26 03:52:00,26.6,22.1,30.16,South,184,1.0,3.0,83,0.00,,,0.00,Wunderground v.1.15,2013-02-26 08:52:00,
2013-02-26 03:58:00,26.3,22.1,30.15,South,184,0.0,3.0,84,0.00,,,0.00,Wunderground v.1.15,2013-02-26 08:58:00,
2013-02-26 04:04:00,26.1,22.2,30.16,South,184,0.0,0.0,85,0.00,,,0.00,Wunderground v.1.15,2013-02-26 09:04:00,
2013-02-26 04:10:00,26.0,22.1,30.15,South,184,1.0,2.0,85,0.00,,,0.00,Wunderground v.1.15,2013-02-26 09:10:00,
2013-02-26 04:16:00,25.9,22.0,30.16,South,184,0.0,2.0,85,0.00,,,0.00,Wunderground v.1.15,2013-02-26 09:16:00,
2013-02-26 04:22:00,25.8,21.9,30.15,South,184,0.0,0.0,85,0.00,,,0.00,Wunderground v.1.15,2013-02-26 09:22:00,
2013-02-26 04:28:00,25.7,22.1,30.15,South,184,0.0,0.0,86,0.00,,,0.00,Wunderground v.1.15,2013-02-26 09:28:00,
2013-02-26 04:34:00,25.8,22.2,30.15,WSW,252,1.0,3.0,86,0.00,,,0.00,Wunderground v.1.15,2013-02-26 09:34:00,
2013-02-26 04:40:00,25.8,22.2,30.15,SW,223,1.0,1.0,86,0.00,,,0.00,Wunderground v.1.15,2013-02-26 09:40:00,
2013-02-26 04:46:00,26.1,22.5,30.14,SSE,161,1.0,2.0,86,0.00,,,0.00,Wunderground v.1.15,2013-02-26 09:46:00,
2013-02-26 04:52:00,26.1,22.2,30.14,SSE,161,1.0,1.0,85,0.00,,,0.00,Wunderground v.1.15,2013-02-26 09:52:00,
2013-02-26 04:58:00,26.3,22.7,30.13,SSE,161,0.0,1.0,86,0.00,,,0.00,Wunderground v.1.15,2013-02-26 09:58:00,
2013-02-26 05:04:00,27.8,23.3,30.13,SSW,199,1.0,2.0,83,0.00,,,0.00,Wunderground v.1.15,2013-02-26 10:04:00,
2013-02-26 05:10:00,28.3,23.5,30.13,SW,215,2.0,3.0,82,0.00,,,0.00,Wunderground v.1.15,2013-02-26 10:10:00,
2013-02-26 05:16:00,28.2,23.4,30.13,South,178,3.0,3.0,82,0.00,,,0.00,Wunderground v.1.15,2013-02-26 10:16:00,
2013-02-26 05:22:00,28.7,23.3,30.13,SSW,198,3.0,3.0,80,0.00,,,0.00,Wunderground v.1.15,2013-02-26 10:22:00,
2013-02-26 05:28:00,28.7,23.6,30.13,SSW,198,2.0,4.0,81,0.00,,,0.00,Wunderground v.1.15,2013-02-26 10:28:00,
2013-02-26 05:34:00,28.5,23.4,30.14,SSW,200,2.0,4.0,81,0.00,,,0.00,Wunderground v.1.15,2013-02-26 10:34:00,
2013-02-26 05:40:00,28.6,23.5,30.14,SSW,199,2.0,2.0,81,0.00,,,0.00,Wunderground v.1.15,2013-02-26 10:40:00,
2013-02-26 05:46:00,28.4,23.3,30.15,SW,216,2.0,4.0,81,0.00,,,0.00,Wunderground v.1.15,2013-02-26 10:46:00,
2013-02-26 05:52:00,29.1,23.4,30.15,SSW,197,4.0,4.0,79,0.00,,,0.00,Wunderground v.1.15,2013-02-26 10:52:00,
2013-02-26 05:58:00,30.0,23.7,30.16,SW,227,4.0,6.0,77,0.00,,,0.00,Wunderground v.1.15,2013-02-26 10:58:00,
2013-02-26 06:04:00,30.8,23.5,30.15,SW,226,4.0,4.0,74,0.00,,,0.00,Wunderground v.1.15,2013-02-26 11:04:00,
2013-02-26 06:10:00,31.6,23.6,30.15,SSW,213,4.0,4.0,72,0.00,,,0.00,Wunderground v.1.15,2013-02-26 11:10:00,
2013-02-26 06:16:00,31.6,23.6,30.15,SSW,213,2.0,4.0,72,0.00,,,0.00,Wunderground v.1.15,2013-02-26 11:16:00,
2013-02-26 06:22:00,31.3,23.3,30.16,SE,144,1.0,4.0,72,0.00,,,0.00,Wunderground v.1.15,2013-02-26 11:22:00,
2013-02-26 06:28:00,31.1,23.5,30.16,SE,146,1.0,4.0,73,0.00,,,0.00,Wunderground v.1.15,2013-02-26 11:28:00,
2013-02-26 06:34:00,30.7,23.4,30.15,SE,146,0.0,1.0,74,0.00,,,0.00,Wunderground v.1.15,2013-02-26 11:34:00,
2013-02-26 06:40:00,31.0,23.4,30.15,SSE,166,2.0,2.0,73,0.00,,,0.00,Wunderground v.1.15,2013-02-26 11:40:00,
2013-02-26 06:46:00,31.0,23.7,30.15,SSE,166,1.0,2.0,74,0.00,,,0.00,Wunderground v.1.15,2013-02-26 11:46:00,
2013-02-26 06:52:00,30.7,23.4,30.15,SSE,166,0.0,2.0,74,0.00,,,0.00,Wunderground v.1.15,2013-02-26 11:52:00,
2013-02-26 06:58:00,30.6,23.3,30.15,SSE,166,0.0,3.0,74,0.00,,,0.00,Wunderground v.1.15,2013-02-26 11:58:00,
2013-02-26 07:04:00,30.6,23.3,30.15,SSW,207,1.0,5.0,74,0.00,,,0.00,Wunderground v.1.15,2013-02-26 12:04:00,
2013-02-26 07:10:00,31.2,23.5,30.15,SSE,161,4.0,4.0,73,0.00,,,0.00,Wunderground v.1.15,2013-02-26 12:10:00,
2013-02-26 07:16:00,31.7,23.4,30.15,SSE,159,3.0,4.0,71,0.00,,,0.00,Wunderground v.1.15,2013-02-26 12:16:00,
2013-02-26 07:22:00,32.1,23.4,30.14,South,186,1.0,2.0,70,0.00,,,0.00,Wunderground v.1.15,2013-02-26 12:22:00,
2013-02-26 07:28:00,32.3,23.6,30.15,South,187,0.0,2.0,70,0.00,,,0.00,Wunderground v.1.15,2013-02-26 12:28:00,
2013-02-26 07:34:00,32.3,23.9,30.15,South,188,1.0,2.0,71,0.00,,,0.00,Wunderground v.1.15,2013-02-26 12:34:00,
2013-02-26 07:40:00,32.5,23.8,30.15,South,186,1.0,3.0,70,0.00,,,0.00,Wunderground v.1.15,2013-02-26 12:40:00,
2013-02-26 07:46:00,32.6,23.9,30.16,South,190,2.0,3.0,70,0.00,,,0.00,Wunderground v.1.15,2013-02-26 12:46:00,
2013-02-26 07:52:00,32.8,24.4,30.16,SSW,194,1.0,3.0,71,0.00,,,0.00,Wunderground v.1.15,2013-02-26 12:52:00,
2013-02-26 07:58:00,32.9,24.5,30.16,SSE,153,1.0,4.0,71,0.00,,,0.00,Wunderground v.1.15,2013-02-26 12:58:00,
2013-02-26 08:04:00,33.1,24.4,30.15,SSE,165,1.0,3.0,70,0.00,,,0.00,Wunderground v.1.15,2013-02-26 13:04:00,
2013-02-26 08:10:00,33.4,25.0,30.15,SSW,193,2.0,2.0,71,0.00,,,0.00,Wunderground v.1.15,2013-02-26 13:10:00,
2013-02-26 08:16:00,33.6,24.9,30.16,SSW,193,1.0,2.0,70,0.00,,,0.00,Wunderground v.1.15,2013-02-26 13:16:00,
2013-02-26 08:22:00,33.9,25.1,30.16,South,182,2.0,4.0,70,0.00,,,0.00,Wunderground v.1.15,2013-02-26 13:22:00,
2013-02-26 08:28:00,34.2,25.1,30.15,SSE,164,3.0,5.0,69,0.00,,,0.00,Wunderground v.1.15,2013-02-26 13:28:00,
2013-02-26 08:34:00,34.4,25.6,30.16,SSW,198,4.0,7.0,70,0.00,,,0.00,Wunderground v.1.15,2013-02-26 13:34:00,
2013-02-26 08:40:00,34.5,25.4,30.16,South,184,5.0,10.0,69,0.00,,,0.00,Wunderground v.1.15,2013-02-26 13:40:00,
2013-02-26 08:46:00,34.7,25.6,30.15,SSW,196,4.0,10.0,69,0.00,,,0.00,Wunderground v.1.15,2013-02-26 13:46:00,
2013-02-26 08:52:00,34.9,25.4,30.15,South,180,4.0,9.0,68,0.00,,,0.00,Wunderground v.1.15,2013-02-26 13:52:00,
2013-02-26 08:58:00,34.9,25.8,30.15,South,191,5.0,9.0,69,0.00,,,0.00,Wunderground v.1.15,2013-02-26 13:58:00,
2013-02-26 09:04:00,35.0,25.9,30.15,South,180,6.0,6.0,69,0.00,,,0.00,Wunderground v.1.15,2013-02-26 14:04:00,
2013-02-26 09:10:00,35.2,26.0,30.15,SW,227,5.0,6.0,69,0.00,,,0.00,Wunderground v.1.15,2013-02-26 14:10:00,
2013-02-26 09:16:00,35.4,26.2,30.15,SSE,149,5.0,6.0,69,0.00,,,0.00,Wunderground v.1.15,2013-02-26 14:16:00,
2013-02-26 09:22:00,35.4,25.9,30.15,SSW,213,5.0,9.0,68,0.00,,,0.00,Wunderground v.1.15,2013-02-26 14:22:00,
2013-02-26 09:28:00,35.6,26.1,30.15,South,178,5.0,9.0,68,0.00,,,0.00,Wunderground v.1.15,2013-02-26 14:28:00,
2013-02-26 09:34:00,35.7,25.8,30.15,SSW,211,5.0,7.0,67,0.00,,,0.00,Wunderground v.1.15,2013-02-26 14:34:00,
2013-02-26 09:40:00,35.9,26.4,30.15,SSW,192,4.0,6.0,68,0.00,,,0.00,Wunderground v.1.15,2013-02-26 14:40:00,
2013-02-26 09:46:00,35.9,26.0,30.15,SW,222,5.0,7.0,67,0.00,,,0.00,Wunderground v.1.15,2013-02-26 14:46:00,
2013-02-26 09:52:00,35.9,26.4,30.14,SW,229,3.0,4.0,68,0.00,,,0.00,Wunderground v.1.15,2013-02-26 14:52:00,
2013-02-26 09:58:00,36.3,26.0,30.14,SSE,150,4.0,4.0,66,0.00,,,0.00,Wunderground v.1.15,2013-02-26 14:58:00,
2013-02-26 10:04:00,36.5,26.6,30.14,South,186,3.0,5.0,67,0.00,,,0.00,Wunderground v.1.15,2013-02-26 15:04:00,
2013-02-26 10:10:00,36.8,26.5,30.13,South,177,3.0,8.0,66,0.00,,,0.00,Wunderground v.1.15,2013-02-26 15:10:00,
2013-02-26 10:16:00,36.9,26.6,30.13,South,184,4.0,8.0,66,0.00,,,0.00,Wunderground v.1.15,2013-02-26 15:16:00,
2013-02-26 10:22:00,37.1,26.8,30.13,SSW,206,4.0,5.0,66,0.00,,,0.00,Wunderground v.1.15,2013-02-26 15:22:00,
2013-02-26 10:28:00,37.2,26.5,30.13,SE,138,5.0,5.0,65,0.00,,,0.00,Wunderground v.1.15,2013-02-26 15:28:00,
2013-02-26 10:34:00,37.3,27.0,30.13,South,190,4.0,7.0,66,0.00,,,0.00,Wunderground v.1.15,2013-02-26 15:34:00,
2013-02-26 10:40:00,37.7,27.0,30.12,SE,139,5.0,5.0,65,0.00,,,0.00,Wunderground v.1.15,2013-02-26 15:40:00,
2013-02-26 10:46:00,37.7,26.2,30.11,SE,140,5.0,8.0,63,0.00,,,0.00,Wunderground v.1.15,2013-02-26 15:46:00,
2013-02-26 10:52:00,37.8,26.7,30.12,ESE,114,6.0,9.0,64,0.00,,,0.00,Wunderground v.1.15,2013-02-26 15:52:00,
2013-02-26 10:58:00,37.9,26.4,30.12,SSE,153,6.0,9.0,63,0.00,,,0.00,Wunderground v.1.15,2013-02-26 15:58:00,
2013-02-26 11:04:00,37.8,26.3,30.12,WSW,250,5.0,9.0,63,0.00,,,0.00,Wunderground v.1.15,2013-02-26 16:04:00,
2013-02-26 11:10:00,37.5,26.4,30.12,SE,129,6.0,6.0,64,0.00,,,0.00,Wunderground v.1.15,2013-02-26 16:10:00,
2013-02-26 11:16:00,37.4,26.3,30.12,SSE,161,8.0,9.0,64,0.00,,,0.00,Wunderground v.1.15,2013-02-26 16:16:00,
2013-02-26 11:22:00,37.2,26.1,30.11,South,173,11.0,12.0,64,0.00,,,0.00,Wunderground v.1.15,2013-02-26 16:22:00,
2013-02-26 11:28:00,37.1,26.4,30.12,South,178,9.0,12.0,65,0.00,,,0.00,Wunderground v.1.15,2013-02-26 16:28:00,
2013-02-26 11:34:00,37.4,26.7,30.11,South,172,7.0,11.0,65,0.00,,,0.00,Wunderground v.1.15,2013-02-26 16:34:00,
2013-02-26 11:40:00,37.6,26.9,30.11,South,175,7.0,12.0,65,0.00,,,0.00,Wunderground v.1.15,2013-02-26 16:40:00,
2013-02-26 11:46:00,37.7,27.0,30.11,SSE,155,7.0,12.0,65,0.00,,,0.00,Wunderground v.1.15,2013-02-26 16:46:00,
2013-02-26 11:52:00,37.7,26.6,30.10,SE,140,8.0,8.0,64,0.00,,,0.00,Wunderground v.1.15,2013-02-26 16:52:00,
2013-02-26 11:58:00,37.8,27.5,30.10,SSE,167,7.0,10.0,66,0.00,,,0.00,Wunderground v.1.15,2013-02-26 16:58:00,
2013-02-26 12:04:00,37.7,27.4,30.09,SSE,164,6.0,7.0,66,0.00,,,0.00,Wunderground v.1.15,2013-02-26 17:04:00,
2013-02-26 12:10:00,37.6,26.5,30.09,ESE,114,6.0,10.0,64,0.00,,,0.00,Wunderground v.1.15,2013-02-26 17:10:00,
2013-02-26 12:16:00,37.5,26.8,30.08,ESE,118,9.0,10.0,65,0.00,,,0.00,Wunderground v.1.15,2013-02-26 17:16:00,
2013-02-26 12:22:00,37.5,26.8,30.08,South,187,7.0,9.0,65,0.00,,,0.00,Wunderground v.1.15,2013-02-26 17:22:00,
2013-02-26 12:28:00,37.5,27.2,30.08,SSE,168,6.0,10.0,66,0.00,,,0.00,Wunderground v.1.15,2013-02-26 17:28:00,
2013-02-26 12:34:00,37.3,27.0,30.08,SE,130,7.0,8.0,66,0.00,,,0.00,Wunderground v.1.15,2013-02-26 17:34:00,
2013-02-26 12:40:00,37.2,27.2,30.08,SSE,155,6.0,6.0,67,0.00,,,0.00,Wunderground v.1.15,2013-02-26 17:40:00,
2013-02-26 12:46:00,37.0,27.1,30.08,ESE,109,9.0,16.0,67,0.00,,,0.00,Wunderground v.1.15,2013-02-26 17:46:00,
2013-02-26 12:52:00,36.9,27.3,30.07,SSW,195,8.0,8.0,68,0.00,,,0.00,Wunderground v.1.15,2013-02-26 17:52:00,
2013-02-26 12:58:00,36.7,27.8,30.07,SE,127,4.0,8.0,70,0.00,,,0.00,Wunderground v.1.15,2013-02-26 17:58:00,
2013-02-26 13:04:00,36.4,27.9,30.06,SSE,152,5.0,6.0,71,0.00,,,0.00,Wunderground v.1.15,2013-02-26 18:04:00,
2013-02-26 13:10:00,36.1,28.6,30.06,ESE,109,3.0,3.0,74,0.00,,,0.01,Wunderground v.1.15,2013-02-26 18:10:00,
2013-02-26 13:16:00,35.7,28.6,30.06,ESE,113,5.0,9.0,75,0.00,,,0.01,Wunderground v.1.15,2013-02-26 18:16:00,
2013-02-26 13:22:00,35.3,28.5,30.06,SE,144,6.0,9.0,76,0.00,,,0.01,Wunderground v.1.15,2013-02-26 18:22:00,
2013-02-26 13:28:00,34.8,28.6,30.05,SSW,204,8.0,11.0,78,0.00,,,0.02,Wunderground v.1.15,2013-02-26 18:28:00,
2013-02-26 13:34:00,34.5,29.0,30.05,SE,128,9.0,11.0,80,0.00,,,0.02,Wunderground v.1.15,2013-02-26 18:34:00,
2013-02-26 13:40:00,34.3,28.8,30.03,ESE,123,9.0,9.0,80,0.00,,,0.02,Wunderground v.1.15,2013-02-26 18:40:00,
2013-02-26 13:46:00,34.3,29.1,30.03,SE,142,5.0,9.0,81,0.00,,,0.02,Wunderground v.1.15,2013-02-26 18:46:00,
2013-02-26 13:52:00,34.3,29.1,30.02,SE,146,4.0,6.0,81,0.00,,,0.02,Wunderground v.1.15,2013-02-26 18:52:00,
2013-02-26 13:58:00,34.1,29.2,30.02,ENE,60,3.0,7.0,82,0.00,,,0.02,Wunderground v.1.15,2013-02-26 18:58:00,
2013-02-26 14:04:00,33.9,29.0,30.01,ESE,119,5.0,11.0,82,0.00,,,0.03,Wunderground v.1.15,2013-02-26 19:04:00,
2013-02-26 14:10:00,33.8,29.2,30.00,SE,137,6.0,6.0,83,0.06,,,0.04,Wunderground v.1.15,2013-02-26 19:10:00,
2013-02-26 14:16:00,33.7,29.4,30.00,SSE,155,3.0,6.0,84,0.06,,,0.04,Wunderground v.1.15,2013-02-26 19:16:00,
2013-02-26 14:22:00,33.7,29.4,29.99,East,82,1.0,2.0,84,0.05,,,0.05,Wunderground v.1.15,2013-02-26 19:22:00,
2013-02-26 14:28:00,33.4,29.4,29.98,NE,53,2.0,5.0,85,0.09,,,0.06,Wunderground v.1.15,2013-02-26 19:28:00,
2013-02-26 14:34:00,33.2,29.2,29.97,NNE,19,3.0,5.0,85,0.09,,,0.06,Wunderground v.1.15,2013-02-26 19:34:00,
2013-02-26 14:40:00,32.9,29.2,29.97,NE,44,3.0,7.0,86,0.05,,,0.06,Wunderground v.1.15,2013-02-26 19:40:00,
2013-02-26 14:46:00,32.8,29.1,29.96,NNE,26,4.0,7.0,86,0.04,,,0.07,Wunderground v.1.15,2013-02-26 19:46:00,
2013-02-26 14:52:00,32.8,29.4,29.96,NE,38,5.0,6.0,87,0.09,,,0.08,Wunderground v.1.15,2013-02-26 19:52:00,
2013-02-26 14:58:00,33.0,29.6,29.96,NE,45,6.0,9.0,87,0.09,,,0.09,Wunderground v.1.15,2013-02-26 19:58:00,
2013-02-26 15:04:00,32.7,29.3,29.95,NE,49,5.0,6.0,87,0.12,,,0.10,Wunderground v.1.15,2013-02-26 20:04:00,
2013-02-26 15:10:00,32.3,28.9,29.95,NNE,21,4.0,8.0,87,0.10,,,0.11,Wunderground v.1.15,2013-02-26 20:10:00,
2013-02-26 15:16:00,32.2,29.0,29.95,ENE,57,6.0,8.0,88,0.10,,,0.12,Wunderground v.1.15,2013-02-26 20:16:00,
2013-02-26 15:22:00,32.2,29.0,29.95,ENE,70,5.0,6.0,88,0.11,,,0.13,Wunderground v.1.15,2013-02-26 20:22:00,
2013-02-26 15:28:00,32.3,29.1,29.94,ENE,57,5.0,7.0,88,0.05,,,0.13,Wunderground v.1.15,2013-02-26 20:28:00,
2013-02-26 15:34:00,32.6,29.4,29.94,NNE,32,6.0,6.0,88,0.04,,,0.14,Wunderground v.1.15,2013-02-26 20:34:00,
2013-02-26 15:40:00,32.6,29.4,29.94,ENE,65,5.0,7.0,88,0.04,,,0.14,Wunderground v.1.15,2013-02-26 20:40:00,
2013-02-26 15:46:00,32.7,29.5,29.94,East,98,6.0,9.0,88,0.04,,,0.14,Wunderground v.1.15,2013-02-26 20:46:00,
2013-02-26 15:52:00,32.9,29.7,29.93,NE,40,7.0,7.0,88,0.00,,,0.14,Wunderground v.1.15,2013-02-26 20:52:00,
2013-02-26 15:58:00,33.2,30.0,29.92,ENE,57,8.0,11.0,88,0.00,,,0.14,Wunderground v.1.15,2013-02-26 20:58:00,
2013-02-26 16:04:00,33.1,29.9,29.91,East,96,7.0,10.0,88,0.00,,,0.15,Wunderground v.1.15,2013-02-26 21:04:00,
2013-02-26 16:10:00,33.3,30.1,29.92,ENE,58,7.0,14.0,88,0.00,,,0.15,Wunderground v.1.15,2013-02-26 21:10:00,
2013-02-26 16:16:00,33.5,30.3,29.92,East,87,7.0,14.0,88,0.07,,,0.16,Wunderground v.1.15,2013-02-26 21:16:00,
2013-02-26 16:22:00,33.5,30.3,29.91,ESE,115,7.0,8.0,88,0.06,,,0.16,Wunderground v.1.15,2013-02-26 21:22:00,
2013-02-26 16:28:00,33.6,30.4,29.91,East,88,8.0,16.0,88,0.04,,,0.16,Wunderground v.1.15,2013-02-26 21:28:00,
2013-02-26 16:34:00,33.8,30.6,29.90,ESE,105,8.0,11.0,88,0.00,,,0.17,Wunderground v.1.15,2013-02-26 21:34:00,
2013-02-26 16:40:00,33.9,30.7,29.90,ENE,64,8.0,8.0,88,0.00,,,0.17,Wunderground v.1.15,2013-02-26 21:40:00,
2013-02-26 16:46:00,34.0,30.8,29.90,ENE,71,10.0,10.0,88,0.00,,,0.17,Wunderground v.1.15,2013-02-26 21:46:00,
2013-02-26 16:52:00,33.9,30.7,29.91,ESE,119,8.0,15.0,88,0.04,,,0.18,Wunderground v.1.15,2013-02-26 21:52:00,
2013-02-26 16:58:00,33.9,30.7,29.89,ENE,74,6.0,15.0,88,0.04,,,0.18,Wunderground v.1.15,2013-02-26 21:58:00,
2013-02-26 17:04:00,33.7,30.5,29.88,ENE,76,7.0,8.0,88,0.04,,,0.19,Wunderground v.1.15,2013-02-26 22:04:00,
2013-02-26 17:10:00,33.8,30.6,29.88,West,265,7.0,7.0,88,0.04,,,0.19,Wunderground v.1.15,2013-02-26 22:10:00,
2013-02-26 17:16:00,33.9,30.7,29.88,East,88,5.0,9.0,88,0.05,,,0.20,Wunderground v.1.15,2013-02-26 22:16:00,
2013-02-26 17:22:00,33.9,30.7,29.87,ENE,60,7.0,7.0,88,0.05,,,0.20,Wunderground v.1.15,2013-02-26 22:22:00,
2013-02-26 17:28:00,33.9,30.7,29.87,NNE,28,8.0,9.0,88,0.05,,,0.20,Wunderground v.1.15,2013-02-26 22:28:00,
2013-02-26 17:34:00,33.8,30.6,29.86,ENE,69,7.0,8.0,88,0.00,,,0.20,Wunderground v.1.15,2013-02-26 22:34:00,
2013-02-26 17:40:00,33.8,30.6,29.86,East,89,7.0,9.0,88,0.00,,,0.21,Wunderground v.1.15,2013-02-26 22:40:00,
2013-02-26 17:46:00,34.1,30.9,29.85,ENE,67,10.0,11.0,88,0.00,,,0.21,Wunderground v.1.15,2013-02-26 22:46:00,
2013-02-26 17:52:00,34.3,31.1,29.84,ENE,57,8.0,9.0,88,0.00,,,0.21,Wunderground v.1.15,2013-02-26 22:52:00,
2013-02-26 17:58:00,34.7,31.5,29.83,East,82,9.0,19.0,88,0.04,,,0.22,Wunderground v.1.15,2013-02-26 22:58:00,
2013-02-26 18:04:00,34.8,31.3,29.83,NE,55,12.0,15.0,87,0.04,,,0.22,Wunderground v.1.15,2013-02-26 23:04:00,
2013-02-26 18:10:00,34.6,31.4,29.82,NE,55,9.0,9.0,88,0.04,,,0.22,Wunderground v.1.15,2013-02-26 23:10:00,
2013-02-26 18:16:00,34.5,31.3,29.83,SE,136,8.0,9.0,88,0.00,,,0.23,Wunderground v.1.15,2013-02-26 23:16:00,
2013-02-26 18:22:00,34.5,31.3,29.82,ENE,71,7.0,8.0,88,0.00,,,0.23,Wunderground v.1.15,2013-02-26 23:22:00,
2013-02-26 18:28:00,34.4,31.2,29.82,NNE,17,7.0,9.0,88,0.00,,,0.23,Wunderground v.1.15,2013-02-26 23:28:00,
2013-02-26 18:34:00,34.4,31.5,29.82,ESE,115,7.0,16.0,89,0.04,,,0.24,Wunderground v.1.15,2013-02-26 23:34:00,
2013-02-26 18:40:00,34.6,31.4,29.80,NE,49,9.0,9.0,88,0.04,,,0.24,Wunderground v.1.15,2013-02-26 23:40:00,
2013-02-26 18:46:00,34.7,31.5,29.80,ENE,78,10.0,12.0,88,0.04,,,0.24,Wunderground v.1.15,2013-02-26 23:46:00,
2013-02-26 18:52:00,35.2,32.0,29.80,NE,56,11.0,11.0,88,0.00,,,0.25,Wunderground v.1.15,2013-02-26 23:52:00,
2013-02-26 18:58:00,35.3,32.1,29.81,SE,135,8.0,11.0,88,0.00,,,0.25,Wunderground v.1.15,2013-02-26 23:58:00,
2013-02-26 19:04:00,35.6,32.1,29.80,NE,42,11.0,15.0,87,0.00,,,0.25,Wunderground v.1.15,2013-02-27 00:04:00,
2013-02-26 19:10:00,35.7,32.2,29.80,East,88,12.0,12.0,87,0.00,,,0.26,Wunderground v.1.15,2013-02-27 00:10:00,
2013-02-26 19:16:00,35.7,32.2,29.79,East,95,12.0,15.0,87,0.00,,,0.26,Wunderground v.1.15,2013-02-27 00:16:00,
2013-02-26 19:22:00,35.6,32.1,29.79,ENE,74,11.0,13.0,87,0.00,,,0.26,Wunderground v.1.15,2013-02-27 00:22:00,
2013-02-26 19:28:00,35.9,32.4,29.80,ESE,103,10.0,13.0,87,0.00,,,0.27,Wunderground v.1.15,2013-02-27 00:28:00,
2013-02-26 19:34:00,35.9,32.4,29.81,ENE,75,10.0,16.0,87,0.00,,,0.27,Wunderground v.1.15,2013-02-27 00:34:00,
2013-02-26 19:40:00,35.9,32.4,29.81,NE,51,9.0,9.0,87,0.06,,,0.28,Wunderground v.1.15,2013-02-27 00:40:00,
2013-02-26 19:46:00,36.0,32.5,29.82,ENE,76,9.0,9.0,87,0.05,,,0.28,Wunderground v.1.15,2013-02-27 00:46:00,
2013-02-26 19:52:00,35.9,32.4,29.79,NE,52,10.0,10.0,87,0.00,,,0.28,Wunderground v.1.15,2013-02-27 00:52:00,
2013-02-26 19:58:00,35.5,32.0,29.82,East,83,9.0,10.0,87,0.00,,,0.29,Wunderground v.1.15,2013-02-27 00:58:00,
2013-02-26 20:04:00,35.2,31.7,29.81,NNE,30,7.0,10.0,87,0.08,,,0.30,Wunderground v.1.15,2013-02-27 01:04:00,
2013-02-26 20:10:00,34.8,31.6,29.82,ENE,77,9.0,12.0,88,0.07,,,0.30,Wunderground v.1.15,2013-02-27 01:10:00,
2013-02-26 20:16:00,34.8,31.6,29.81,East,96,7.0,12.0,88,0.05,,,0.31,Wunderground v.1.15,2013-02-27 01:16:00,
2013-02-26 20:22:00,34.3,31.1,29.82,ENE,65,6.0,8.0,88,0.09,,,0.32,Wunderground v.1.15,2013-02-27 01:22:00,
2013-02-26 20:28:00,34.2,31.0,29.81,NE,41,6.0,8.0,88,0.08,,,0.32,Wunderground v.1.15,2013-02-27 01:28:00,
2013-02-26 20:34:00,33.9,31.0,29.82,ENE,58,5.0,6.0,89,0.06,,,0.33,Wunderground v.1.15,2013-02-27 01:34:00,
2013-02-26 20:40:00,33.7,30.8,29.82,NE,38,4.0,5.0,89,0.11,,,0.34,Wunderground v.1.15,2013-02-27 01:40:00,
2013-02-26 20:46:00,33.4,30.5,29.81,ENE,73,4.0,7.0,89,0.08,,,0.35,Wunderground v.1.15,2013-02-27 01:46:00,
2013-02-26 20:52:00,33.0,30.4,29.81,ENE,64,6.0,8.0,90,0.08,,,0.36,Wunderground v.1.15,2013-02-27 01:52:00,
2013-02-26 20:58:00,32.9,30.3,29.80,ENE,62,6.0,8.0,90,0.08,,,0.36,Wunderground v.1.15,2013-02-27 01:58:00,
2013-02-26 21:04:00,32.9,30.3,29.80,NE,38,5.0,6.0,90,0.04,,,0.36,Wunderground v.1.15,2013-02-27 02:04:00,
2013-02-26 21:10:00,32.8,30.2,29.81,NNE,17,5.0,5.0,90,0.04,,,0.37,Wunderground v.1.15,2013-02-27 02:10:00,
2013-02-26 21:16:00,32.8,30.2,29.81,NE,35,6.0,8.0,90,0.06,,,0.38,Wunderground v.1.15,2013-02-27 02:16:00,
2013-02-26 21:22:00,33.0,30.4,29.81,NE,40,7.0,7.0,90,0.06,,,0.38,Wunderground v.1.15,2013-02-27 02:22:00,
2013-02-26 21:30:00,32.7,30.1,29.80,NNE,22,4.0,4.0,90,0.04,,,0.38,Wunderground v.1.15,2013-02-27 02:30:00,
2013-02-26 21:36:00,32.5,29.9,29.80,North,9,4.0,5.0,90,0.00,,,0.38,Wunderground v.1.15,2013-02-27 02:36:00,
2013-02-26 21:42:00,32.3,29.7,29.81,North,9,4.0,5.0,90,0.00,,,0.38,Wunderground v.1.15,2013-02-27 02:42:00,
2013-02-26 21:48:00,32.2,29.6,29.80,NNW,330,4.0,6.0,90,0.00,,,0.39,Wunderground v.1.15,2013-02-27 02:48:00,
2013-02-26 21:54:00,32.0,29.7,29.80,ENE,67,3.0,3.0,91,0.00,,,0.39,Wunderground v.1.15,2013-02-27 02:54:00,
2013-02-26 22:00:00,31.8,29.5,29.79,NE,46,4.0,6.0,91,0.00,,,0.39,Wunderground v.1.15,2013-02-27 03:00:00,
2013-02-26 22:06:00,31.9,29.6,29.79,NNE,16,5.0,6.0,91,0.00,,,0.39,Wunderground v.1.15,2013-02-27 03:06:00,
2013-02-26 22:12:00,31.9,29.6,29.79,North,11,5.0,6.0,91,0.00,,,0.39,Wunderground v.1.15,2013-02-27 03:12:00,
2013-02-26 22:18:00,31.8,29.5,29.78,NNE,28,5.0,7.0,91,0.00,,,0.39,Wunderground v.1.15,2013-02-27 03:18:00,
2013-02-26 22:24:00,31.8,29.7,29.77,NNE,19,5.0,6.0,92,0.00,,,0.40,Wunderground v.1.15,2013-02-27 03:24:00,
2013-02-26 22:30:00,31.9,29.8,29.77,North,9,6.0,6.0,92,0.00,,,0.40,Wunderground v.1.15,2013-02-27 03:30:00,
2013-02-26 22:36:00,31.9,29.8,29.76,NNE,21,7.0,8.0,92,0.00,,,0.40,Wunderground v.1.15,2013-02-27 03:36:00,
2013-02-26 22:42:00,31.9,29.8,29.76,NE,46,6.0,6.0,92,0.00,,,0.40,Wunderground v.1.15,2013-02-27 03:42:00,
2013-02-26 22:48:00,31.7,29.6,29.76,North,360,5.0,6.0,92,0.00,,,0.40,Wunderground v.1.15,2013-02-27 03:48:00,
2013-02-26 22:54:00,31.7,29.6,29.75,NNE,17,6.0,8.0,92,0.00,,,0.40,Wunderground v.1.15,2013-02-27 03:54:00,
2013-02-26 23:00:00,31.8,29.7,29.75,North,355,6.0,6.0,92,0.00,,,0.40,Wunderground v.1.15,2013-02-27 04:00:00,
2013-02-26 23:06:00,31.9,29.8,29.74,NNE,26,6.0,11.0,92,0.00,,,0.40,Wunderground v.1.15,2013-02-27 04:06:00,
2013-02-26 23:12:00,31.9,29.8,29.74,NE,44,7.0,8.0,92,0.00,,,0.40,Wunderground v.1.15,2013-02-27 04:12:00,
2013-02-26 23:18:00,31.9,29.8,29.74,NNE,18,8.0,9.0,92,0.00,,,0.41,Wunderground v.1.15,2013-02-27 04:18:00,
2013-02-26 23:24:00,31.9,29.8,29.73,NNE,23,7.0,10.0,92,0.00,,,0.41,Wunderground v.1.15,2013-02-27 04:24:00,
2013-02-26 23:30:00,31.9,29.8,29.73,NNE,29,6.0,8.0,92,0.00,,,0.41,Wunderground v.1.15,2013-02-27 04:30:00,
2013-02-26 23:36:00,31.9,29.8,29.73,NE,37,6.0,8.0,92,0.00,,,0.41,Wunderground v.1.15,2013-02-27 04:36:00,
2013-02-26 23:42:00,31.9,29.8,29.72,NE,38,6.0,8.0,92,0.00,,,0.41,Wunderground v.1.15,2013-02-27 04:42:00,
2013-02-26 23:48:00,31.9,29.8,29.72,NE,40,6.0,8.0,92,0.00,,,0.41,Wunderground v.1.15,2013-02-27 04:48:00,
2013-02-26 23:54:00,31.9,29.8,29.72,NE,38,7.0,9.0,92,0.00,,,0.42,Wunderground v.1.15,2013-02-27 04:54:00,